createdAt,value
2016-11-21T00:00:03.147Z,99.57
2016-11-21T00:01:03.105Z,99.29
2016-11-21T00:02:03.058Z,99.66
2016-11-21T00:03:03.018Z,99.29
2016-11-21T00:04:02.975Z,98.91
2016-11-21T00:05:02.936Z,99.48
2016-11-21T00:06:02.890Z,99.01
2016-11-21T00:07:02.851Z,99.38
2016-11-21T00:08:02.812Z,99.1
2016-11-21T00:09:02.766Z,99.01
2016-11-21T00:10:02.726Z,98.53
2016-11-21T00:11:02.380Z,98.53
2016-11-21T00:12:02.642Z,99.01
2016-11-21T00:13:02.597Z,98.53
2016-11-21T00:14:02.557Z,98.72
2016-11-21T00:15:02.519Z,99.95
2016-11-21T00:16:02.170Z,99.19
2016-11-21T00:17:02.431Z,98.72
2016-11-21T00:18:02.389Z,98.72
2016-11-21T00:19:02.345Z,98.63
2016-11-21T00:20:02.303Z,98.91
2016-11-21T00:21:02.261Z,99.1
2016-11-21T00:22:02.219Z,98.53
2016-11-21T00:23:02.175Z,98.63
2016-11-21T00:24:01.833Z,98.63
2016-11-21T00:25:02.092Z,98.91
2016-11-21T00:26:02.051Z,99.19
2016-11-21T00:27:02.007Z,99.19
2016-11-21T00:28:01.967Z,99.01
2016-11-21T00:29:01.923Z,99.01
2016-11-21T00:30:01.882Z,98.53
2016-11-21T00:31:01.852Z,98.63
2016-11-21T00:32:01.498Z,98.91
2016-11-21T00:33:01.756Z,98.53
2016-11-21T00:34:01.714Z,98.53
2016-11-21T00:35:01.672Z,98.72
2016-11-21T00:36:01.634Z,98.82
2016-11-21T00:37:01.589Z,98.44
2016-11-21T00:38:01.543Z,98.34
2016-11-21T00:39:01.502Z,99.1
2016-11-21T00:40:01.461Z,98.82
2016-11-21T00:41:01.420Z,98.91
2016-11-21T00:42:01.378Z,98.91
2016-11-21T00:43:01.337Z,98.63
2016-11-21T00:44:01.295Z,98.44
2016-11-21T00:45:01.252Z,98.44
2016-11-21T00:46:01.210Z,98.72
2016-11-21T00:47:01.165Z,99.48
2016-11-21T00:48:01.125Z,98.53
2016-11-21T00:49:01.092Z,99.01
2016-11-21T00:50:00.738Z,98.63
2016-11-21T00:51:01.004Z,98.63
2016-11-21T00:52:00.957Z,98.63
2016-11-21T00:53:00.915Z,98.44
2016-11-21T00:54:00.872Z,98.72
2016-11-21T00:55:00.831Z,98.63
2016-11-21T00:56:00.791Z,98.72
2016-11-21T00:57:00.747Z,98.82
2016-11-21T00:58:00.404Z,98.39
2016-11-21T00:59:00.661Z,99.1
2016-11-21T01:00:00.618Z,99.01
2016-11-21T01:01:00.575Z,98.72
2016-11-21T01:02:00.537Z,98.44
2016-11-21T01:03:00.494Z,98.53
2016-11-21T01:04:00.451Z,98.72
2016-11-21T01:05:00.408Z,99.01
2016-11-21T01:06:00.366Z,99.29
2016-11-21T01:07:00.331Z,99.19
2016-11-21T01:08:00.286Z,99.29
2016-11-21T01:08:59.939Z,99.19
2016-11-21T01:10:00.198Z,99.66
2016-11-21T01:11:00.155Z,99.01
2016-11-21T01:12:00.115Z,99.29
2016-11-21T01:13:00.070Z,99.48
2016-11-21T01:14:00.031Z,98.91
2016-11-21T01:14:59.990Z,99.01
2016-11-21T01:15:59.949Z,98.53
2016-11-21T01:16:59.906Z,99.29
2016-11-21T01:17:59.559Z,98.91
2016-11-21T01:18:59.823Z,98.53
2016-11-21T01:19:59.474Z,98.91
2016-11-21T01:20:59.737Z,98.44
2016-11-21T01:21:59.691Z,98.53
2016-11-21T01:22:59.654Z,98.44
2016-11-21T01:23:59.611Z,98.44
2016-11-21T01:24:59.568Z,98.91
2016-11-21T01:25:59.527Z,99.19
2016-11-21T01:26:59.482Z,98.72
2016-11-21T01:27:59.448Z,98.82
2016-11-21T01:28:59.098Z,98.72
2016-11-21T01:29:59.056Z,98.44
2016-11-21T01:30:59.015Z,99.29
2016-11-21T01:31:58.974Z,98.91
2016-11-21T01:32:59.230Z,99.66
2016-11-21T01:33:58.888Z,99.29
2016-11-21T01:34:59.151Z,99.15
2016-11-21T01:35:58.804Z,99.33
2016-11-21T01:36:59.085Z,98.96
2016-11-21T01:37:59.023Z,98.58
2016-11-21T01:38:58.980Z,98.25
2016-11-21T01:39:58.943Z,97.4
2016-11-21T01:40:58.895Z,96.73
2016-11-21T01:41:58.856Z,96.36
2016-11-21T01:42:58.817Z,96.07
2016-11-21T01:43:58.772Z,95.69
2016-11-21T01:44:58.730Z,95.65
2016-11-21T01:45:58.721Z,95.79
2016-11-21T01:46:58.649Z,95.03
2016-11-21T01:47:58.615Z,95.12
2016-11-21T01:48:58.568Z,94.89
2016-11-21T01:49:58.524Z,94.65
2016-11-21T01:50:58.484Z,94.51
2016-11-21T01:51:58.439Z,93.94
2016-11-21T01:52:58.401Z,93.37
2016-11-21T01:53:58.367Z,92.71
2016-11-21T01:54:58.313Z,92.42
2016-11-21T01:55:58.273Z,91.57
2016-11-21T01:56:58.233Z,91.38
2016-11-21T01:57:57.888Z,91.47
2016-11-21T01:58:58.150Z,90.81
2016-11-21T01:59:58.109Z,90.81
2016-11-21T02:00:58.066Z,90.15
2016-11-21T02:01:57.727Z,90.91
2016-11-21T02:02:57.983Z,90.72
2016-11-21T02:03:57.946Z,90.62
2016-11-21T02:04:57.904Z,91.47
2016-11-21T02:05:57.561Z,91.38
2016-11-21T02:06:57.822Z,91.28
2016-11-21T02:07:57.780Z,91.19
2016-11-21T02:08:57.738Z,91.57
2016-11-21T02:09:57.698Z,91.76
2016-11-21T02:10:57.354Z,91.95
2016-11-21T02:11:57.615Z,91.95
2016-11-21T02:12:57.582Z,92.09
2016-11-21T02:13:57.231Z,91.95
2016-11-21T02:14:57.496Z,92.23
2016-11-21T02:15:57.453Z,91.95
2016-11-21T02:16:57.415Z,92.47
2016-11-21T02:17:57.371Z,92.61
2016-11-21T02:18:57.328Z,92.66
2016-11-21T02:19:57.286Z,92.66
2016-11-21T02:20:56.944Z,92.38
2016-11-21T02:21:56.905Z,92.38
2016-11-21T02:22:57.164Z,92.66
2016-11-21T02:23:57.123Z,92.76
2016-11-21T02:24:57.083Z,92.66
2016-11-21T02:25:57.039Z,92.76
2016-11-21T02:26:56.998Z,92.76
2016-11-21T02:27:56.960Z,92.66
2016-11-21T02:28:56.612Z,92.76
2016-11-21T02:29:56.875Z,92.66
2016-11-21T02:30:56.834Z,92.47
2016-11-21T02:31:56.491Z,92.57
2016-11-21T02:32:56.753Z,92.76
2016-11-21T02:33:56.712Z,92.66
2016-11-21T02:34:56.672Z,92.66
2016-11-21T02:35:56.628Z,92.66
2016-11-21T02:36:56.587Z,92.76
2016-11-21T02:37:56.545Z,92.94
2016-11-21T02:38:56.504Z,93.23
2016-11-21T02:39:56.466Z,92.94
2016-11-21T02:40:56.420Z,93.42
2016-11-21T02:41:56.380Z,93.13
2016-11-21T02:42:56.339Z,93.51
2016-11-21T02:43:56.297Z,93.42
2016-11-21T02:44:56.257Z,93.13
2016-11-21T02:45:56.213Z,93.32
2016-11-21T02:46:56.176Z,93.42
2016-11-21T02:47:56.134Z,93.61
2016-11-21T02:48:56.091Z,93.7
2016-11-21T02:49:56.048Z,93.8
2016-11-21T02:50:56.006Z,93.7
2016-11-21T02:51:55.967Z,93.51
2016-11-21T02:52:55.926Z,93.42
2016-11-21T02:53:55.902Z,93.23
2016-11-21T02:54:55.842Z,93.13
2016-11-21T02:55:55.801Z,93.42
2016-11-21T02:56:55.778Z,93.32
2016-11-21T02:57:55.718Z,93.32
2016-11-21T02:58:55.676Z,93.42
2016-11-21T02:59:55.337Z,93.13
2016-11-21T03:00:55.297Z,93.51
2016-11-21T03:01:55.252Z,93.32
2016-11-21T03:02:55.515Z,93.42
2016-11-21T03:03:55.467Z,93.04
2016-11-21T03:04:55.427Z,93.23
2016-11-21T03:05:55.386Z,93.23
2016-11-21T03:06:55.347Z,93.8
2016-11-21T03:07:55.003Z,93.7
2016-11-21T03:08:55.263Z,93.61
2016-11-21T03:09:55.219Z,93.99
2016-11-21T03:10:55.179Z,93.99
2016-11-21T03:11:55.140Z,93.99
2016-11-21T03:12:54.792Z,94.08
2016-11-21T03:13:55.056Z,93.99
2016-11-21T03:14:55.017Z,94.08
2016-11-21T03:15:54.672Z,94.08
2016-11-21T03:16:54.937Z,93.89
2016-11-21T03:17:54.889Z,93.7
2016-11-21T03:18:54.849Z,94.08
2016-11-21T03:19:54.813Z,93.99
2016-11-21T03:20:54.766Z,94.27
2016-11-21T03:21:54.729Z,94.18
2016-11-21T03:22:54.683Z,94.37
2016-11-21T03:23:54.641Z,94.37
2016-11-21T03:24:54.600Z,94.56
2016-11-21T03:25:54.559Z,94.08
2016-11-21T03:26:54.547Z,93.7
2016-11-21T03:27:54.475Z,93.89
2016-11-21T03:28:54.133Z,93.8
2016-11-21T03:29:54.403Z,93.99
2016-11-21T03:30:54.365Z,93.99
2016-11-21T03:31:54.312Z,93.89
2016-11-21T03:32:54.273Z,93.8
2016-11-21T03:33:54.228Z,94.27
2016-11-21T03:34:54.190Z,94.27
2016-11-21T03:35:54.146Z,93.99
2016-11-21T03:36:54.108Z,93.99
2016-11-21T03:37:54.068Z,93.51
2016-11-21T03:38:54.024Z,93.8
2016-11-21T03:39:53.681Z,93.84
2016-11-21T03:40:53.942Z,93.8
2016-11-21T03:41:53.901Z,93.84
2016-11-21T03:42:53.557Z,93.37
2016-11-21T03:43:53.816Z,93.8
2016-11-21T03:44:53.476Z,93.84
2016-11-21T03:45:53.734Z,93.61
2016-11-21T03:46:53.693Z,93.46
2016-11-21T03:47:53.355Z,93.56
2016-11-21T03:48:53.641Z,93.08
2016-11-21T03:49:53.574Z,93.51
2016-11-21T03:50:53.531Z,93.08
2016-11-21T03:51:53.488Z,93.18
2016-11-21T03:52:53.448Z,92.9
2016-11-21T03:53:53.404Z,92.71
2016-11-21T03:54:53.366Z,92.9
2016-11-21T03:55:53.323Z,92.71
2016-11-21T03:56:53.285Z,92.61
2016-11-21T03:57:52.941Z,91.66
2016-11-21T03:58:52.903Z,91.05
2016-11-21T03:59:53.158Z,90.57
2016-11-21T04:00:53.122Z,90.29
2016-11-21T04:01:53.082Z,90.1
2016-11-21T04:02:53.040Z,89.81
2016-11-21T04:03:52.995Z,89.91
2016-11-21T04:04:52.952Z,90.1
2016-11-21T04:05:52.614Z,89.43
2016-11-21T04:06:52.874Z,89.15
2016-11-21T04:07:52.834Z,89.15
2016-11-21T04:08:52.490Z,89.25
2016-11-21T04:09:52.449Z,88.96
2016-11-21T04:10:52.710Z,88.58
2016-11-21T04:11:52.672Z,88.53
2016-11-21T04:12:52.635Z,88.91
2016-11-21T04:13:52.286Z,88.34
2016-11-21T04:14:52.547Z,88.24
2016-11-21T04:15:52.512Z,87.92
2016-11-21T04:16:52.470Z,88.06
2016-11-21T04:17:52.122Z,88.06
2016-11-21T04:18:52.386Z,87.2
2016-11-21T04:19:52.347Z,85.87
2016-11-21T04:20:52.304Z,85.35
2016-11-21T04:21:52.263Z,85.06
2016-11-21T04:22:52.222Z,83.83
2016-11-21T04:23:52.185Z,83.36
2016-11-21T04:24:52.142Z,82.59
2016-11-21T04:25:52.103Z,81.4
2016-11-21T04:26:52.062Z,80.55
2016-11-21T04:27:52.023Z,80.02
2016-11-21T04:28:51.982Z,78.5
2016-11-21T04:29:51.940Z,77.3
2016-11-21T04:30:51.902Z,76.16
2016-11-21T04:31:51.862Z,75.49
2016-11-21T04:32:51.822Z,74.29
2016-11-21T04:33:51.779Z,72.58
2016-11-21T04:34:51.750Z,72.05
2016-11-21T04:35:51.403Z,70.62
2016-11-21T04:36:51.363Z,69.48
2016-11-21T04:37:51.627Z,68.46
2016-11-21T04:38:51.585Z,67.99
2016-11-21T04:39:51.545Z,67.13
2016-11-21T04:40:51.506Z,66.94
2016-11-21T04:41:51.166Z,66.78
2016-11-21T04:42:51.429Z,66.11
2016-11-21T04:43:51.390Z,65.92
2016-11-21T04:44:51.355Z,65.16
2016-11-21T04:45:51.314Z,64.69
2016-11-21T04:46:51.275Z,64.21
2016-11-21T04:47:50.934Z,64.02
2016-11-21T04:48:51.201Z,63.73
2016-11-21T04:49:51.160Z,63.64
2016-11-21T04:50:51.124Z,63.64
2016-11-21T04:51:51.090Z,63.1
2016-11-21T04:52:50.747Z,63
2016-11-21T04:53:51.008Z,63.1
2016-11-21T04:54:50.971Z,63
2016-11-21T04:55:50.935Z,62.62
2016-11-21T04:56:50.596Z,61.96
2016-11-21T04:57:50.859Z,61.38
2016-11-21T04:58:50.824Z,60.84
2016-11-21T04:59:50.784Z,60.27
2016-11-21T05:00:50.449Z,60.75
2016-11-21T05:01:50.707Z,60.55
2016-11-21T05:02:50.672Z,60.08
2016-11-21T05:03:50.333Z,59.99
2016-11-21T05:04:50.595Z,59.12
2016-11-21T05:05:50.560Z,58.17
2016-11-21T05:06:50.224Z,58.17
2016-11-21T05:07:50.486Z,58.46
2016-11-21T05:08:50.455Z,58.55
2016-11-21T05:09:50.413Z,58.36
2016-11-21T05:10:50.374Z,57.89
2016-11-21T05:11:50.339Z,57.79
2016-11-21T05:12:50.301Z,57.24
2016-11-21T05:13:50.264Z,56.87
2016-11-21T05:14:50.231Z,56.1
2016-11-21T05:15:50.191Z,56.2
2016-11-21T05:16:50.159Z,56.2
2016-11-21T05:17:50.119Z,56.48
2016-11-21T05:18:50.080Z,56.01
2016-11-21T05:19:50.044Z,56.01
2016-11-21T05:20:50.007Z,55.53
2016-11-21T05:21:49.973Z,55.34
2016-11-21T05:22:49.936Z,55.91
2016-11-21T05:23:49.898Z,55.82
2016-11-21T05:24:49.563Z,55.82
2016-11-21T05:25:49.824Z,55.72
2016-11-21T05:26:49.792Z,55.62
2016-11-21T05:27:49.754Z,55.91
2016-11-21T05:28:49.715Z,55.55
2016-11-21T05:29:49.683Z,55.55
2016-11-21T05:30:49.646Z,55.65
2016-11-21T05:31:49.606Z,55.84
2016-11-21T05:32:49.571Z,55.08
2016-11-21T05:33:49.536Z,55.18
2016-11-21T05:34:49.499Z,55.08
2016-11-21T05:35:49.161Z,55.27
2016-11-21T05:36:49.425Z,55.36
2016-11-21T05:37:49.389Z,54.5
2016-11-21T05:38:49.052Z,54.32
2016-11-21T05:39:49.320Z,54.5
2016-11-21T05:40:49.283Z,54.5
2016-11-21T05:41:49.246Z,54.5
2016-11-21T05:42:49.209Z,54.5
2016-11-21T05:43:49.177Z,54.6
2016-11-21T05:44:48.835Z,54.32
2016-11-21T05:45:49.102Z,54.13
2016-11-21T05:46:48.763Z,54.13
2016-11-21T05:47:49.030Z,54.03
2016-11-21T05:48:48.995Z,54.41
2016-11-21T05:49:48.958Z,54.15
2016-11-21T05:50:48.922Z,53.84
2016-11-21T05:51:48.890Z,53.65
2016-11-21T05:52:48.849Z,53.67
2016-11-21T05:53:48.815Z,53.49
2016-11-21T05:54:48.780Z,53.29
2016-11-21T05:55:48.442Z,53.77
2016-11-21T05:56:48.708Z,53.1
2016-11-21T05:57:48.370Z,52.91
2016-11-21T05:58:48.636Z,53
2016-11-21T05:59:48.601Z,52.62
2016-11-21T06:00:48.262Z,51.95
2016-11-21T06:01:48.229Z,52.34
2016-11-21T06:02:48.494Z,51.86
2016-11-21T06:03:48.460Z,51.76
2016-11-21T06:04:48.422Z,51.29
2016-11-21T06:05:48.087Z,51.12
2016-11-21T06:06:48.363Z,51.03
2016-11-21T06:07:48.320Z,51.03
2016-11-21T06:08:47.984Z,51.21
2016-11-21T06:09:48.248Z,51.31
2016-11-21T06:10:47.907Z,51.31
2016-11-21T06:11:48.175Z,50.64
2016-11-21T06:12:48.142Z,51.21
2016-11-21T06:13:47.808Z,51.31
2016-11-21T06:14:48.067Z,51.03
2016-11-21T06:15:48.030Z,50.64
2016-11-21T06:16:47.998Z,50.45
2016-11-21T06:17:47.962Z,50.55
2016-11-21T06:18:47.930Z,49.98
2016-11-21T06:19:47.591Z,49.88
2016-11-21T06:20:47.856Z,50.19
2016-11-21T06:21:47.822Z,49.52
2016-11-21T06:22:47.785Z,49.52
2016-11-21T06:23:47.750Z,49.71
2016-11-21T06:24:47.725Z,49.9
2016-11-21T06:25:47.679Z,49.52
2016-11-21T06:26:47.645Z,49.52
2016-11-21T06:27:47.643Z,48.85
2016-11-21T06:28:47.573Z,48.47
2016-11-21T06:29:47.539Z,48.75
2016-11-21T06:30:47.203Z,48.75
2016-11-21T06:31:47.166Z,48.57
2016-11-21T06:32:47.433Z,48.47
2016-11-21T06:33:47.123Z,48.28
2016-11-21T06:34:47.363Z,48.18
2016-11-21T06:35:47.329Z,47.99
2016-11-21T06:36:47.292Z,47.99
2016-11-21T06:37:46.957Z,47.52
2016-11-21T06:38:47.224Z,47.42
2016-11-21T06:39:46.886Z,47.42
2016-11-21T06:40:47.163Z,47.32
2016-11-21T06:41:46.816Z,47.25
2016-11-21T06:42:46.779Z,47.25
2016-11-21T06:43:47.050Z,47.53
2016-11-21T06:44:46.710Z,47.61
2016-11-21T06:45:47.004Z,47.44
2016-11-21T06:46:46.942Z,47.53
2016-11-21T06:47:46.910Z,47.13
2016-11-21T06:48:46.872Z,47.61
2016-11-21T06:49:46.836Z,47.99
2016-11-21T06:50:46.803Z,47.34
2016-11-21T06:51:46.767Z,47.44
2016-11-21T06:52:46.733Z,47.53
2016-11-21T06:53:46.699Z,46.96
2016-11-21T06:54:46.664Z,46.77
2016-11-21T06:55:46.630Z,46.77
2016-11-21T06:56:46.594Z,45.81
2016-11-21T06:57:46.556Z,46.1
2016-11-21T06:58:46.535Z,46.48
2016-11-21T06:59:46.493Z,46.96
2016-11-21T07:00:46.455Z,46.87
2016-11-21T07:01:46.421Z,47.34
2016-11-21T07:02:46.386Z,47.25
2016-11-21T07:03:46.354Z,47.34
2016-11-21T07:04:46.318Z,47.53
2016-11-21T07:05:46.281Z,47.25
2016-11-21T07:06:46.248Z,47.44
2016-11-21T07:07:46.213Z,47.34
2016-11-21T07:08:46.175Z,47.44
2016-11-21T07:09:46.144Z,47.34
2016-11-21T07:10:45.807Z,47.44
2016-11-21T07:11:46.075Z,47.53
2016-11-21T07:12:46.037Z,47.73
2016-11-21T07:13:46.008Z,47.63
2016-11-21T07:14:45.974Z,47.53
2016-11-21T07:15:45.941Z,46.96
2016-11-21T07:16:45.901Z,46.96
2016-11-21T07:17:45.871Z,46.77
2016-11-21T07:18:45.832Z,46.58
2016-11-21T07:19:45.797Z,46.48
2016-11-21T07:20:45.761Z,46.2
2016-11-21T07:21:45.429Z,46.01
2016-11-21T07:22:45.395Z,46.01
2016-11-21T07:23:45.658Z,45.81
2016-11-21T07:24:45.622Z,46.1
2016-11-21T07:25:45.596Z,45.91
2016-11-21T07:26:45.553Z,45.62
2016-11-21T07:27:45.520Z,45.81
2016-11-21T07:28:45.485Z,45.72
2016-11-21T07:29:45.450Z,45.62
2016-11-21T07:30:45.420Z,45.74
2016-11-21T07:31:45.381Z,45.74
2016-11-21T07:32:45.357Z,45.17
2016-11-21T07:33:45.314Z,45.26
2016-11-21T07:34:45.279Z,45.17
2016-11-21T07:35:45.248Z,45.26
2016-11-21T07:36:45.210Z,45.17
2016-11-21T07:37:45.175Z,45.84
2016-11-21T07:38:45.155Z,45.55
2016-11-21T07:39:45.108Z,45.17
2016-11-21T07:40:45.070Z,45.17
2016-11-21T07:41:45.037Z,44.59
2016-11-21T07:42:45.005Z,44.69
2016-11-21T07:43:44.968Z,44.88
2016-11-21T07:44:44.938Z,44.59
2016-11-21T07:45:44.903Z,44.71
2016-11-21T07:46:44.564Z,44.59
2016-11-21T07:47:44.833Z,44.69
2016-11-21T07:48:44.800Z,44.5
2016-11-21T07:49:44.763Z,44.43
2016-11-21T07:50:44.426Z,44.79
2016-11-21T07:51:44.697Z,44.31
2016-11-21T07:52:44.357Z,44.81
2016-11-21T07:53:44.626Z,44.21
2016-11-21T07:54:44.291Z,44.23
2016-11-21T07:55:44.561Z,44.04
2016-11-21T07:56:44.525Z,43.85
2016-11-21T07:57:44.189Z,42.8
2016-11-21T07:58:44.456Z,43.18
2016-11-21T07:59:44.121Z,43.18
2016-11-21T08:00:44.087Z,43.47
2016-11-21T08:01:43.899Z,42.99
2016-11-21T08:02:44.321Z,42.7
2016-11-21T08:03:44.286Z,42.7
2016-11-21T08:04:44.253Z,42.51
2016-11-21T08:05:43.920Z,42.32
2016-11-21T08:06:44.186Z,42.13
2016-11-21T08:07:44.151Z,42.22
2016-11-21T08:08:43.817Z,42.34
2016-11-21T08:09:44.084Z,42.05
2016-11-21T08:10:44.053Z,43.1
2016-11-21T08:11:44.017Z,42.91
2016-11-21T08:12:43.983Z,42.72
2016-11-21T08:13:43.953Z,43.1
2016-11-21T08:14:43.914Z,42.72
2016-11-21T08:15:43.889Z,43.1
2016-11-21T08:16:43.854Z,42.72
2016-11-21T08:17:43.814Z,42.53
2016-11-21T08:18:43.478Z,43.1
2016-11-21T08:19:43.750Z,43.1
2016-11-21T08:20:43.412Z,43.01
2016-11-21T08:21:43.682Z,43.2
2016-11-21T08:22:43.652Z,43.1
2016-11-21T08:23:43.618Z,43.3
2016-11-21T08:24:43.579Z,43.3
2016-11-21T08:25:43.546Z,44.06
2016-11-21T08:26:43.513Z,43.68
2016-11-21T08:27:43.176Z,43.1
2016-11-21T08:28:43.446Z,43.01
2016-11-21T08:29:43.419Z,44.06
2016-11-21T08:30:43.381Z,44.26
2016-11-21T08:31:43.345Z,43.59
2016-11-21T08:32:43.314Z,43.68
2016-11-21T08:33:43.280Z,43.97
2016-11-21T08:34:43.248Z,43.59
2016-11-21T08:35:43.211Z,43.01
2016-11-21T08:36:43.179Z,43.39
2016-11-21T08:37:43.148Z,43.1
2016-11-21T08:38:43.113Z,43.3
2016-11-21T08:39:43.080Z,43.1
2016-11-21T08:40:43.055Z,42.82
2016-11-21T08:41:43.014Z,43.51
2016-11-21T08:42:42.995Z,43.01
2016-11-21T08:43:42.647Z,43.1
2016-11-21T08:44:42.914Z,43.03
2016-11-21T08:45:42.880Z,42.65
2016-11-21T08:46:42.844Z,42.46
2016-11-21T08:47:42.811Z,42.46
2016-11-21T08:48:42.783Z,42.27
2016-11-21T08:49:42.746Z,42.17
2016-11-21T08:50:42.410Z,42.07
2016-11-21T08:51:42.684Z,41.4
2016-11-21T08:52:42.650Z,40.92
2016-11-21T08:53:42.316Z,41.4
2016-11-21T08:54:42.583Z,41.5
2016-11-21T08:55:42.552Z,40.83
2016-11-21T08:56:42.518Z,40.83
2016-11-21T08:57:42.482Z,41.42
2016-11-21T08:58:42.154Z,41.4
2016-11-21T08:59:42.418Z,41.33
2016-11-21T09:00:42.383Z,40.73
2016-11-21T09:01:42.351Z,40.75
2016-11-21T09:02:42.320Z,40.17
2016-11-21T09:03:41.986Z,41.23
2016-11-21T09:04:42.256Z,41.52
2016-11-21T09:05:42.221Z,40.94
2016-11-21T09:06:42.192Z,41.42
2016-11-21T09:07:41.854Z,41.33
2016-11-21T09:08:42.132Z,40.37
2016-11-21T09:09:42.095Z,40.92
2016-11-21T09:10:42.059Z,41.23
2016-11-21T09:11:42.027Z,41.31
2016-11-21T09:12:41.995Z,41.31
2016-11-21T09:13:41.964Z,41.33
2016-11-21T09:14:41.628Z,40.64
2016-11-21T09:15:41.907Z,40.64
2016-11-21T09:16:41.863Z,40.08
2016-11-21T09:17:41.523Z,39.98
2016-11-21T09:18:41.792Z,40.17
2016-11-21T09:19:41.459Z,40.17
2016-11-21T09:20:41.733Z,39.89
2016-11-21T09:21:41.697Z,39.98
2016-11-21T09:22:41.663Z,39.79
2016-11-21T09:23:41.329Z,39.31
2016-11-21T09:24:41.296Z,40.37
2016-11-21T09:25:41.564Z,40.08
2016-11-21T09:26:41.531Z,40.47
2016-11-21T09:27:41.500Z,39.98
2016-11-21T09:28:41.164Z,40.08
2016-11-21T09:29:41.434Z,39.79
2016-11-21T09:30:41.405Z,39.41
2016-11-21T09:31:41.371Z,38.74
2016-11-21T09:32:41.333Z,39.6
2016-11-21T09:33:41.006Z,40.08
2016-11-21T09:34:41.274Z,40.08
2016-11-21T09:35:41.239Z,40.37
2016-11-21T09:36:41.206Z,40.66
2016-11-21T09:37:41.188Z,41.5
2016-11-21T09:38:41.140Z,40.83
2016-11-21T09:39:40.807Z,40.92
2016-11-21T09:40:41.075Z,41.5
2016-11-21T09:41:40.742Z,41.78
2016-11-21T09:42:41.009Z,41.8
2016-11-21T09:43:40.979Z,41.21
2016-11-21T09:44:40.647Z,41.21
2016-11-21T09:45:40.943Z,41.33
2016-11-21T09:46:40.880Z,41.23
2016-11-21T09:47:40.848Z,41.23
2016-11-21T09:48:40.813Z,40.66
2016-11-21T09:49:40.783Z,40.47
2016-11-21T09:50:40.751Z,40.84
2016-11-21T09:51:40.716Z,40.66
2016-11-21T09:52:40.685Z,40.66
2016-11-21T09:53:40.352Z,40.17
2016-11-21T09:54:40.318Z,40.16
2016-11-21T09:55:40.285Z,40.35
2016-11-21T09:56:40.556Z,40.25
2016-11-21T09:57:40.220Z,40.35
2016-11-21T09:58:40.492Z,39.97
2016-11-21T09:59:40.458Z,41.31
2016-11-21T10:00:40.423Z,41.21
2016-11-21T10:01:40.088Z,41.4
2016-11-21T10:02:40.361Z,40.64
2016-11-21T10:03:40.334Z,39.77
2016-11-21T10:04:40.298Z,40.44
2016-11-21T10:05:40.262Z,39.68
2016-11-21T10:06:40.229Z,39.87
2016-11-21T10:07:40.229Z,40.06
2016-11-21T10:08:39.862Z,39.58
2016-11-21T10:09:40.128Z,39.87
2016-11-21T10:10:40.102Z,39.87
2016-11-21T10:11:40.065Z,39.1
2016-11-21T10:12:40.034Z,40.06
2016-11-21T10:13:40.001Z,39.77
2016-11-21T10:14:39.970Z,39.58
2016-11-21T10:15:39.931Z,40.73
2016-11-21T10:16:39.903Z,40.25
2016-11-21T10:17:39.873Z,40.25
2016-11-21T10:18:39.535Z,40.54
2016-11-21T10:19:39.503Z,40.83
2016-11-21T10:20:39.769Z,41.5
2016-11-21T10:21:39.739Z,41.31
2016-11-21T10:22:39.405Z,41.6
2016-11-21T10:23:39.669Z,41.6
2016-11-21T10:24:39.640Z,41.78
2016-11-21T10:25:39.608Z,41.78
2016-11-21T10:26:39.574Z,41.88
2016-11-21T10:27:39.543Z,41.69
2016-11-21T10:28:39.506Z,42.07
2016-11-21T10:29:39.172Z,42.17
2016-11-21T10:30:39.140Z,42.17
2016-11-21T10:31:39.417Z,41.78
2016-11-21T10:32:39.377Z,41.78
2016-11-21T10:33:39.341Z,41.78
2016-11-21T10:34:39.315Z,41.88
2016-11-21T10:35:39.364Z,41.97
2016-11-21T10:36:39.246Z,42.07
2016-11-21T10:37:39.214Z,42.84
2016-11-21T10:38:39.184Z,42.55
2016-11-21T10:39:39.149Z,42.84
2016-11-21T10:40:39.121Z,43.13
2016-11-21T10:41:39.082Z,42.72
2016-11-21T10:42:39.050Z,43.23
2016-11-21T10:43:38.720Z,43.6
2016-11-21T10:44:38.984Z,43.59
2016-11-21T10:45:38.948Z,44.16
2016-11-21T10:46:38.916Z,43.97
2016-11-21T10:47:38.583Z,44.06
2016-11-21T10:48:38.851Z,44.35
2016-11-21T10:49:38.516Z,44.35
2016-11-21T10:50:38.784Z,44.45
2016-11-21T10:51:38.448Z,44.54
2016-11-21T10:52:38.722Z,44.26
2016-11-21T10:53:38.386Z,43.32
2016-11-21T10:54:38.652Z,43.51
2016-11-21T10:55:38.616Z,43.7
2016-11-21T10:56:38.591Z,44.09
2016-11-21T10:57:38.553Z,43.8
2016-11-21T10:58:38.218Z,43.8
2016-11-21T10:59:38.187Z,43.7
2016-11-21T11:00:38.455Z,43.32
2016-11-21T11:01:38.119Z,43.8
2016-11-21T11:02:38.390Z,44.09
2016-11-21T11:03:38.359Z,43.7
2016-11-21T11:04:38.020Z,43.99
2016-11-21T11:05:38.290Z,43.8
2016-11-21T11:06:38.255Z,44.37
2016-11-21T11:07:38.226Z,44.18
2016-11-21T11:08:38.193Z,44.47
2016-11-21T11:09:38.157Z,44.47
2016-11-21T11:10:38.129Z,43.7
2016-11-21T11:11:38.093Z,43.7
2016-11-21T11:12:38.060Z,44.18
2016-11-21T11:13:38.030Z,43.8
2016-11-21T11:14:37.999Z,44.27
2016-11-21T11:15:37.962Z,43.9
2016-11-21T11:16:37.931Z,43.99
2016-11-21T11:17:37.601Z,43.6
2016-11-21T11:18:37.862Z,43.32
2016-11-21T11:19:37.831Z,43.23
2016-11-21T11:20:37.497Z,43.13
2016-11-21T11:21:37.770Z,43.03
2016-11-21T11:22:37.735Z,42.65
2016-11-21T11:23:37.696Z,42.94
2016-11-21T11:24:37.665Z,42.74
2016-11-21T11:25:37.330Z,42.65
2016-11-21T11:26:37.602Z,42.55
2016-11-21T11:27:37.565Z,42.17
2016-11-21T11:28:37.535Z,41.31
2016-11-21T11:29:37.501Z,41.6
2016-11-21T11:30:37.468Z,41.31
2016-11-21T11:31:37.433Z,41.8
2016-11-21T11:32:37.399Z,42.07
2016-11-21T11:33:37.369Z,42.17
2016-11-21T11:34:37.335Z,42.07
2016-11-21T11:35:37.300Z,41.97
2016-11-21T11:36:37.269Z,42.77
2016-11-21T11:37:37.234Z,42.65
2016-11-21T11:38:37.201Z,42.17
2016-11-21T11:39:37.169Z,42.65
2016-11-21T11:40:37.134Z,42.84
2016-11-21T11:41:37.102Z,42.17
2016-11-21T11:42:37.072Z,42.36
2016-11-21T11:43:37.036Z,42.84
2016-11-21T11:44:37.005Z,43.03
2016-11-21T11:45:36.978Z,43.51
2016-11-21T11:46:36.939Z,42.46
2016-11-21T11:47:36.904Z,42.65
2016-11-21T11:48:36.870Z,42.55
2016-11-21T11:49:36.539Z,42.17
2016-11-21T11:50:36.505Z,42.17
2016-11-21T11:51:36.771Z,41.78
2016-11-21T11:52:36.741Z,41.6
2016-11-21T11:53:36.706Z,41.69
2016-11-21T11:54:36.675Z,41.78
2016-11-21T11:55:36.640Z,41.69
2016-11-21T11:56:36.609Z,41.69
2016-11-21T11:57:36.582Z,41.69
2016-11-21T11:58:36.238Z,41.69
2016-11-21T11:59:36.508Z,41.31
2016-11-21T12:00:36.475Z,41.4
2016-11-21T12:01:36.448Z,41.31
2016-11-21T12:02:36.411Z,41.4
2016-11-21T12:03:36.374Z,41.69
2016-11-21T12:04:36.037Z,41.31
2016-11-21T12:05:36.308Z,41.13
2016-11-21T12:06:36.274Z,41.33
2016-11-21T12:07:36.241Z,41.4
2016-11-21T12:08:36.208Z,40.94
2016-11-21T12:09:36.175Z,41.23
2016-11-21T12:10:36.144Z,40.64
2016-11-21T12:11:35.806Z,40.27
2016-11-21T12:12:36.078Z,40.08
2016-11-21T12:13:36.045Z,40.37
2016-11-21T12:14:36.017Z,40.56
2016-11-21T12:15:35.977Z,40.84
2016-11-21T12:16:35.947Z,40.56
2016-11-21T12:17:35.911Z,40.66
2016-11-21T12:18:35.879Z,40.75
2016-11-21T12:19:35.544Z,40.66
2016-11-21T12:20:35.811Z,40.75
2016-11-21T12:21:35.777Z,40.84
2016-11-21T12:22:35.747Z,41.13
2016-11-21T12:23:35.712Z,41.04
2016-11-21T12:24:35.677Z,40.84
2016-11-21T12:25:35.645Z,41.52
2016-11-21T12:26:35.611Z,40.66
2016-11-21T12:27:35.578Z,41.04
2016-11-21T12:28:35.247Z,41.13
2016-11-21T12:29:35.510Z,40.84
2016-11-21T12:30:35.480Z,40.56
2016-11-21T12:31:35.451Z,40.56
2016-11-21T12:32:35.421Z,40.84
2016-11-21T12:33:35.380Z,41.04
2016-11-21T12:34:35.357Z,40.17
2016-11-21T12:35:35.317Z,40.08
2016-11-21T12:36:35.280Z,39.6
2016-11-21T12:37:35.245Z,39.03
2016-11-21T12:38:34.916Z,39.12
2016-11-21T12:39:35.189Z,39.5
2016-11-21T12:40:35.147Z,40.17
2016-11-21T12:41:35.114Z,40.29
2016-11-21T12:42:35.081Z,40.66
2016-11-21T12:43:35.074Z,41.52
2016-11-21T12:44:35.020Z,41.8
2016-11-21T12:45:34.984Z,41.71
2016-11-21T12:46:34.952Z,41.71
2016-11-21T12:47:34.620Z,42.77
2016-11-21T12:48:34.885Z,42.77
2016-11-21T12:49:34.851Z,42.84
2016-11-21T12:50:34.825Z,42.77
2016-11-21T12:51:34.792Z,43.13
2016-11-21T12:52:34.763Z,42.55
2016-11-21T12:53:34.718Z,43.23
2016-11-21T12:54:34.692Z,43.13
2016-11-21T12:55:34.655Z,43.7